sensor_id;sensor_type;location;lat;lon;timestamp;pressure;altitude;pressure_sealevel;temperature;humidity
15604;BME280;7902;49.042;9.092;2022-10-31T00:02:20;99539.47;;;16.25;68.84
15604;BME280;7902;49.042;9.092;2022-10-31T00:04:46;99536.41;;;16.20;68.57
15604;BME280;7902;49.042;9.092;2022-10-31T00:07:13;99544.34;;;16.20;68.77
15604;BME280;7902;49.042;9.092;2022-10-31T00:09:39;99533.72;;;16.10;68.52
15604;BME280;7902;49.042;9.092;2022-10-31T00:12:05;99535.16;;;16.14;68.29
15604;BME280;7902;49.042;9.092;2022-10-31T00:14:31;99543.09;;;16.14;68.48
15604;BME280;7902;49.042;9.092;2022-10-31T00:16:57;99539.03;;;16.10;69.07
15604;BME280;7902;49.042;9.092;2022-10-31T00:19:23;99536.13;;;16.13;68.56
15604;BME280;7902;49.042;9.092;2022-10-31T00:21:51;99537.13;;;16.22;68.36
15604;BME280;7902;49.042;9.092;2022-10-31T00:24:17;99539.06;;;16.30;68.36
15604;BME280;7902;49.042;9.092;2022-10-31T00:26:43;99533.94;;;16.28;68.78
15604;BME280;7902;49.042;9.092;2022-10-31T00:29:09;99541.03;;;16.28;68.87
15604;BME280;7902;49.042;9.092;2022-10-31T00:31:35;99537.97;;;16.22;68.89
15604;BME280;7902;49.042;9.092;2022-10-31T00:34:01;99544.94;;;16.23;68.70
15604;BME280;7902;49.042;9.092;2022-10-31T00:36:28;99539.63;;;16.23;68.49
15604;BME280;7902;49.042;9.092;2022-10-31T00:38:54;99529.16;;;16.22;68.95
15604;BME280;7902;49.042;9.092;2022-10-31T00:41:20;99530.44;;;16.28;69.39
15604;BME280;7902;49.042;9.092;2022-10-31T00:43:46;99529.31;;;16.30;69.37
15604;BME280;7902;49.042;9.092;2022-10-31T00:46:13;99529.91;;;16.34;68.55
15604;BME280;7902;49.042;9.092;2022-10-31T00:48:39;99534.34;;;16.33;69.21
15604;BME280;7902;49.042;9.092;2022-10-31T00:51:05;99534.50;;;16.32;68.83
15604;BME280;7902;49.042;9.092;2022-10-31T00:53:31;99541.59;;;16.31;68.54
15604;BME280;7902;49.042;9.092;2022-10-31T00:55:57;99537.25;;;16.30;68.93
15604;BME280;7902;49.042;9.092;2022-10-31T00:58:23;99525.13;;;16.28;69.11
15604;BME280;7902;49.042;9.092;2022-10-31T01:00:49;99535.75;;;16.28;69.61
15604;BME280;7902;49.042;9.092;2022-10-31T01:03:27;99524.44;;;16.25;69.15
15604;BME280;7902;49.042;9.092;2022-10-31T01:05:58;99524.72;;;16.32;68.83
15604;BME280;7902;49.042;9.092;2022-10-31T01:08:24;99532.69;;;16.32;69.11
15604;BME280;7902;49.042;9.092;2022-10-31T01:11:01;99529.31;;;16.30;68.97
15604;BME280;7902;49.042;9.092;2022-10-31T01:13:27;99530.00;;;16.22;69.46
15604;BME280;7902;49.042;9.092;2022-10-31T01:15:55;99530.44;;;16.28;69.43
15604;BME280;7902;49.042;9.092;2022-10-31T01:18:21;99532.13;;;16.29;69.41
15604;BME280;7902;49.042;9.092;2022-10-31T01:20:47;99536.00;;;16.34;69.33
15604;BME280;7902;49.042;9.092;2022-10-31T01:23:13;99533.09;;;16.37;68.77
15604;BME280;7902;49.042;9.092;2022-10-31T01:25:39;99530.47;;;16.37;69.14
15604;BME280;7902;49.042;9.092;2022-10-31T01:28:05;99535.06;;;16.45;69.36
15604;BME280;7902;49.042;9.092;2022-10-31T01:30:31;99526.44;;;16.43;69.23
15604;BME280;7902;49.042;9.092;2022-10-31T01:32:57;99528.22;;;16.42;69.65
15604;BME280;7902;49.042;9.092;2022-10-31T01:35:23;99524.59;;;16.43;69.12
15604;BME280;7902;49.042;9.092;2022-10-31T01:37:49;99529.31;;;16.40;69.08
15604;BME280;7902;49.042;9.092;2022-10-31T01:40:15;99533.53;;;16.42;69.71
15604;BME280;7902;49.042;9.092;2022-10-31T01:42:41;99528.34;;;16.41;69.36
15604;BME280;7902;49.042;9.092;2022-10-31T01:45:09;99531.31;;;16.38;69.62
15604;BME280;7902;49.042;9.092;2022-10-31T01:47:45;99526.84;;;16.38;69.75
15604;BME280;7902;49.042;9.092;2022-10-31T01:50:20;99529.19;;;16.41;69.71
15604;BME280;7902;49.042;9.092;2022-10-31T01:52:50;99524.75;;;16.42;69.87
15604;BME280;7902;49.042;9.092;2022-10-31T01:55:26;99525.72;;;16.41;69.52
15604;BME280;7902;49.042;9.092;2022-10-31T01:57:57;99531.72;;;16.43;69.54
15604;BME280;7902;49.042;9.092;2022-10-31T02:00:25;99528.50;;;16.39;69.68
15604;BME280;7902;49.042;9.092;2022-10-31T02:02:51;99524.88;;;16.40;69.31
15604;BME280;7902;49.042;9.092;2022-10-31T02:05:20;99527.53;;;16.40;69.45
15604;BME280;7902;49.042;9.092;2022-10-31T02:07:58;99528.06;;;16.34;69.52
15604;BME280;7902;49.042;9.092;2022-10-31T02:10:26;99526.00;;;16.38;69.75
15604;BME280;7902;49.042;9.092;2022-10-31T02:12:55;99530.47;;;16.37;69.65
15604;BME280;7902;49.042;9.092;2022-10-31T02:15:22;99527.94;;;16.36;69.72
15604;BME280;7902;49.042;9.092;2022-10-31T02:17:48;99521.94;;;16.34;69.95
15604;BME280;7902;49.042;9.092;2022-10-31T02:20:19;99522.91;;;16.33;69.27
15604;BME280;7902;49.042;9.092;2022-10-31T02:23:19;99525.72;;;16.41;69.04
15604;BME280;7902;49.042;9.092;2022-10-31T02:31:46;99525.56;;;16.33;69.18
15604;BME280;7902;49.042;9.092;2022-10-31T02:42:16;99526.53;;;16.22;69.66
15604;BME280;7902;49.042;9.092;2022-10-31T02:45:07;99524.72;;;16.22;69.35
15604;BME280;7902;49.042;9.092;2022-10-31T02:47:37;99519.94;;;16.16;69.50
15604;BME280;7902;49.042;9.092;2022-10-31T02:50:13;99522.75;;;16.15;69.42
15604;BME280;7902;49.042;9.092;2022-10-31T02:52:39;99519.25;;;16.14;68.98
15604;BME280;7902;49.042;9.092;2022-10-31T02:57:52;99511.72;;;16.10;69.49
15604;BME280;7902;49.042;9.092;2022-10-31T03:00:19;99512.53;;;16.10;68.65
15604;BME280;7902;49.042;9.092;2022-10-31T03:05:46;99515.59;;;16.06;69.31
15604;BME280;7902;49.042;9.092;2022-10-31T03:08:22;99520.59;;;15.99;69.21
15604;BME280;7902;49.042;9.092;2022-10-31T03:11:00;99511.38;;;15.94;69.97
15604;BME280;7902;49.042;9.092;2022-10-31T03:13:34;99518.50;;;15.93;69.10
15604;BME280;7902;49.042;9.092;2022-10-31T03:16:31;99522.91;;;15.83;69.64
15604;BME280;7902;49.042;9.092;2022-10-31T03:19:06;99528.31;;;15.72;69.44
15604;BME280;7902;49.042;9.092;2022-10-31T03:24:07;99528.56;;;15.69;69.23
15604;BME280;7902;49.042;9.092;2022-10-31T03:26:41;99526.47;;;15.63;69.10
15604;BME280;7902;49.042;9.092;2022-10-31T03:29:10;99522.66;;;15.56;69.08
15604;BME280;7902;49.042;9.092;2022-10-31T03:31:51;99527.75;;;15.48;68.52
15604;BME280;7902;49.042;9.092;2022-10-31T03:34:20;99520.78;;;15.47;69.58
15604;BME280;7902;49.042;9.092;2022-10-31T03:36:50;99533.56;;;15.42;68.88
15604;BME280;7902;49.042;9.092;2022-10-31T03:39:19;99520.06;;;15.45;69.02
15604;BME280;7902;49.042;9.092;2022-10-31T03:41:54;99523.69;;;15.44;68.21
15604;BME280;7902;49.042;9.092;2022-10-31T03:44:22;99518.81;;;15.39;69.27
15604;BME280;7902;49.042;9.092;2022-10-31T03:46:49;99516.28;;;15.37;68.38
15604;BME280;7902;49.042;9.092;2022-10-31T03:49:16;99527.13;;;15.34;69.11
15604;BME280;7902;49.042;9.092;2022-10-31T03:51:56;99512.78;;;15.37;69.07
15604;BME280;7902;49.042;9.092;2022-10-31T03:57:10;99521.97;;;15.33;69.47
15604;BME280;7902;49.042;9.092;2022-10-31T03:59:44;99514.59;;;15.36;68.78
15604;BME280;7902;49.042;9.092;2022-10-31T04:02:14;99514.34;;;15.40;68.96
15604;BME280;7902;49.042;9.092;2022-10-31T04:04:43;99512.66;;;15.38;69.18
15604;BME280;7902;49.042;9.092;2022-10-31T04:07:10;99516.28;;;15.37;69.00
15604;BME280;7902;49.042;9.092;2022-10-31T04:09:40;99519.09;;;15.46;69.25
15604;BME280;7902;49.042;9.092;2022-10-31T04:12:08;99515.22;;;15.50;68.67
15604;BME280;7902;49.042;9.092;2022-10-31T04:14:38;99517.84;;;15.50;69.59
15604;BME280;7902;49.042;9.092;2022-10-31T04:17:09;99514.53;;;15.48;68.82
15604;BME280;7902;49.042;9.092;2022-10-31T04:19:36;99509.22;;;15.48;69.30
15604;BME280;7902;49.042;9.092;2022-10-31T04:22:02;99509.47;;;15.45;68.81
15604;BME280;7902;49.042;9.092;2022-10-31T04:24:28;99507.28;;;15.50;69.57
15604;BME280;7902;49.042;9.092;2022-10-31T04:26:54;99504.19;;;15.45;69.39
15604;BME280;7902;49.042;9.092;2022-10-31T04:29:20;99502.38;;;15.45;69.50
15604;BME280;7902;49.042;9.092;2022-10-31T04:31:46;99499.88;;;15.44;69.38
15604;BME280;7902;49.042;9.092;2022-10-31T04:34:12;99500.56;;;15.46;69.63
15604;BME280;7902;49.042;9.092;2022-10-31T04:36:38;99505.19;;;15.44;69.32
15604;BME280;7902;49.042;9.092;2022-10-31T04:39:04;99500.56;;;15.46;69.57
15604;BME280;7902;49.042;9.092;2022-10-31T04:41:29;99506.13;;;15.43;69.73
15604;BME280;7902;49.042;9.092;2022-10-31T04:43:55;99501.53;;;15.45;69.48
15604;BME280;7902;49.042;9.092;2022-10-31T04:46:21;99496.84;;;15.48;69.35
15604;BME280;7902;49.042;9.092;2022-10-31T04:48:47;99500.56;;;15.46;68.92
15604;BME280;7902;49.042;9.092;2022-10-31T04:51:13;99491.78;;;15.45;69.62
15604;BME280;7902;49.042;9.092;2022-10-31T04:53:39;99491.50;;;15.38;68.38
15604;BME280;7902;49.042;9.092;2022-10-31T04:56:05;99484.09;;;15.32;68.81
15604;BME280;7902;49.042;9.092;2022-10-31T04:58:31;99489.09;;;15.35;69.48
15604;BME280;7902;49.042;9.092;2022-10-31T05:00:57;99487.44;;;15.34;68.37
15604;BME280;7902;49.042;9.092;2022-10-31T05:03:23;99485.03;;;15.31;69.28
15604;BME280;7902;49.042;9.092;2022-10-31T05:05:49;99482.56;;;15.30;68.95
15604;BME280;7902;49.042;9.092;2022-10-31T05:08:15;99480.88;;;15.29;69.03
15604;BME280;7902;49.042;9.092;2022-10-31T05:10:41;99476.38;;;15.20;69.42
15604;BME280;7902;49.042;9.092;2022-10-31T05:13:07;99479.47;;;15.04;68.74
15604;BME280;7902;49.042;9.092;2022-10-31T05:15:33;99482.50;;;15.00;69.37
15604;BME280;7902;49.042;9.092;2022-10-31T05:17:59;99469.28;;;15.00;68.56
15604;BME280;7902;49.042;9.092;2022-10-31T05:20:28;99476.88;;;14.93;69.42
15604;BME280;7902;49.042;9.092;2022-10-31T05:22:55;99476.03;;;14.92;68.10
15604;BME280;7902;49.042;9.092;2022-10-31T05:25:23;99475.16;;;14.82;68.34
15604;BME280;7902;49.042;9.092;2022-10-31T05:27:51;99477.47;;;14.76;69.61
15604;BME280;7902;49.042;9.092;2022-10-31T05:30:20;99474.56;;;14.79;68.79
15604;BME280;7902;49.042;9.092;2022-10-31T05:32:48;99478.19;;;14.78;69.27
15604;BME280;7902;49.042;9.092;2022-10-31T05:35:25;99473.16;;;14.75;68.89
15604;BME280;7902;49.042;9.092;2022-10-31T05:37:51;99477.59;;;14.74;69.14
15604;BME280;7902;49.042;9.092;2022-10-31T05:40:18;99465.47;;;14.72;68.40
15604;BME280;7902;49.042;9.092;2022-10-31T05:42:45;99466.72;;;14.68;68.52
15604;BME280;7902;49.042;9.092;2022-10-31T05:45:14;99463.22;;;14.67;68.79
15604;BME280;7902;49.042;9.092;2022-10-31T05:47:41;99471.16;;;14.67;68.62
15604;BME280;7902;49.042;9.092;2022-10-31T05:50:07;99462.03;;;14.60;68.97
15604;BME280;7902;49.042;9.092;2022-10-31T05:52:34;99462.44;;;14.56;68.49
15604;BME280;7902;49.042;9.092;2022-10-31T05:55:00;99466.28;;;14.52;68.05
15604;BME280;7902;49.042;9.092;2022-10-31T05:57:26;99466.28;;;14.52;68.77
15604;BME280;7902;49.042;9.092;2022-10-31T05:59:52;99470.63;;;14.53;69.09
15604;BME280;7902;49.042;9.092;2022-10-31T06:02:20;99469.09;;;14.50;68.34
15604;BME280;7902;49.042;9.092;2022-10-31T06:04:47;99472.91;;;14.46;68.19
15604;BME280;7902;49.042;9.092;2022-10-31T06:07:13;99471.97;;;14.47;68.42
15604;BME280;7902;49.042;9.092;2022-10-31T06:09:39;99470.44;;;14.44;68.46
15604;BME280;7902;49.042;9.092;2022-10-31T06:12:05;99465.13;;;14.44;67.70
15604;BME280;7902;49.042;9.092;2022-10-31T06:14:31;99468.47;;;14.46;68.03
15604;BME280;7902;49.042;9.092;2022-10-31T06:16:57;99475.44;;;14.47;68.91
15604;BME280;7902;49.042;9.092;2022-10-31T06:19:23;99472.06;;;14.45;68.46
15604;BME280;7902;49.042;9.092;2022-10-31T06:21:48;99474.97;;;14.42;68.88
15604;BME280;7902;49.042;9.092;2022-10-31T06:24:14;99473.69;;;14.37;68.45
15604;BME280;7902;49.042;9.092;2022-10-31T06:26:41;99475.09;;;14.41;67.67
15604;BME280;7902;49.042;9.092;2022-10-31T06:29:06;99483.41;;;14.36;68.64
15604;BME280;7902;49.042;9.092;2022-10-31T06:31:32;99480.41;;;14.30;68.11
15604;BME280;7902;49.042;9.092;2022-10-31T06:33:58;99481.25;;;14.30;69.57
15604;BME280;7902;49.042;9.092;2022-10-31T06:36:24;99480.53;;;14.28;68.87
15604;BME280;7902;49.042;9.092;2022-10-31T06:38:50;99479.69;;;14.28;68.05
15604;BME280;7902;49.042;9.092;2022-10-31T06:41:16;99483.53;;;14.24;69.31
15604;BME280;7902;49.042;9.092;2022-10-31T06:43:42;99482.13;;;14.20;69.34
15604;BME280;7902;49.042;9.092;2022-10-31T06:46:08;99474.47;;;14.17;69.45
15604;BME280;7902;49.042;9.092;2022-10-31T06:48:33;99476.25;;;14.16;68.88
15604;BME280;7902;49.042;9.092;2022-10-31T06:51:01;99484.56;;;14.12;69.40
15604;BME280;7902;49.042;9.092;2022-10-31T06:53:27;99479.97;;;14.14;68.88
15604;BME280;7902;49.042;9.092;2022-10-31T06:55:55;99480.81;;;14.14;68.55
15604;BME280;7902;49.042;9.092;2022-10-31T06:58:22;99481.44;;;14.06;69.09
15604;BME280;7902;49.042;9.092;2022-10-31T07:00:48;99482.84;;;14.22;68.47
15604;BME280;7902;49.042;9.092;2022-10-31T07:03:14;99485.50;;;14.22;69.02
15604;BME280;7902;49.042;9.092;2022-10-31T07:05:42;99485.59;;;14.20;69.11
15604;BME280;7902;49.042;9.092;2022-10-31T07:08:11;99484.66;;;14.21;68.65
15604;BME280;7902;49.042;9.092;2022-10-31T07:10:38;99491.94;;;14.18;69.10
15604;BME280;7902;49.042;9.092;2022-10-31T07:13:07;99489.66;;;14.24;68.42
15604;BME280;7902;49.042;9.092;2022-10-31T07:15:35;99495.78;;;14.25;68.81
15604;BME280;7902;49.042;9.092;2022-10-31T07:18:03;99493.78;;;14.17;68.83
15604;BME280;7902;49.042;9.092;2022-10-31T07:20:30;99501.81;;;14.16;69.82
15604;BME280;7902;49.042;9.092;2022-10-31T07:22:57;99502.88;;;14.13;69.15
15604;BME280;7902;49.042;9.092;2022-10-31T07:25:23;99498.34;;;14.15;69.46
15604;BME280;7902;49.042;9.092;2022-10-31T07:27:49;99499.28;;;14.14;70.25
15604;BME280;7902;49.042;9.092;2022-10-31T07:30:15;99502.53;;;14.18;69.10
15604;BME280;7902;49.042;9.092;2022-10-31T07:32:48;99495.06;;;14.23;69.60
15604;BME280;7902;49.042;9.092;2022-10-31T07:35:17;99501.91;;;14.25;69.15
15604;BME280;7902;49.042;9.092;2022-10-31T07:37:44;99503.25;;;14.20;69.45
15604;BME280;7902;49.042;9.092;2022-10-31T07:40:10;99502.28;;;14.21;69.76
15604;BME280;7902;49.042;9.092;2022-10-31T07:42:44;99504.66;;;14.24;70.04
15604;BME280;7902;49.042;9.092;2022-10-31T07:45:12;99506.69;;;14.31;69.57
15604;BME280;7902;49.042;9.092;2022-10-31T07:47:42;99499.38;;;14.35;69.50
15604;BME280;7902;49.042;9.092;2022-10-31T07:50:13;99494.81;;;14.37;69.98
15604;BME280;7902;49.042;9.092;2022-10-31T07:52:39;99504.31;;;14.39;69.90
15604;BME280;7902;49.042;9.092;2022-10-31T07:55:05;99499.03;;;14.39;69.76
15604;BME280;7902;49.042;9.092;2022-10-31T07:57:32;99499.22;;;14.47;69.88
15604;BME280;7902;49.042;9.092;2022-10-31T07:59:57;99499.69;;;14.53;69.95
15604;BME280;7902;49.042;9.092;2022-10-31T08:02:24;99502.53;;;14.61;69.44
15604;BME280;7902;49.042;9.092;2022-10-31T08:04:50;99501.19;;;14.66;69.77
15604;BME280;7902;49.042;9.092;2022-10-31T08:07:16;99498.44;;;14.68;70.08
15604;BME280;7902;49.042;9.092;2022-10-31T08:09:42;99499.84;;;14.72;69.68
15604;BME280;7902;49.042;9.092;2022-10-31T08:12:08;99498.75;;;14.74;68.69
15604;BME280;7902;49.042;9.092;2022-10-31T08:14:34;99489.91;;;14.85;69.67
15604;BME280;7902;49.042;9.092;2022-10-31T08:17:00;99485.34;;;14.87;69.88
15604;BME280;7902;49.042;9.092;2022-10-31T08:19:26;99486.78;;;14.91;70.04
15604;BME280;7902;49.042;9.092;2022-10-31T08:21:53;99485.88;;;15.02;69.43
15604;BME280;7902;49.042;9.092;2022-10-31T08:24:21;99493.53;;;15.05;68.96
15604;BME280;7902;49.042;9.092;2022-10-31T08:26:47;99485.66;;;15.14;69.49
15604;BME280;7902;49.042;9.092;2022-10-31T08:29:13;99491.63;;;15.16;68.97
15604;BME280;7902;49.042;9.092;2022-10-31T08:31:40;99484.81;;;15.14;68.83
15604;BME280;7902;49.042;9.092;2022-10-31T08:34:06;99485.16;;;15.20;69.04
15604;BME280;7902;49.042;9.092;2022-10-31T08:36:32;99484.03;;;15.23;69.76
15604;BME280;7902;49.042;9.092;2022-10-31T08:38:58;99476.81;;;15.25;69.05
15604;BME280;7902;49.042;9.092;2022-10-31T08:41:24;99472.78;;;15.30;70.00
15604;BME280;7902;49.042;9.092;2022-10-31T08:43:50;99471.56;;;15.34;69.57
15604;BME280;7902;49.042;9.092;2022-10-31T08:46:16;99467.94;;;15.35;69.69
15604;BME280;7902;49.042;9.092;2022-10-31T08:48:43;99475.34;;;15.42;69.68
15604;BME280;7902;49.042;9.092;2022-10-31T08:51:11;99468.56;;;15.49;68.95
15604;BME280;7902;49.042;9.092;2022-10-31T08:53:37;99468.56;;;15.49;68.90
15604;BME280;7902;49.042;9.092;2022-10-31T08:56:03;99459.41;;;15.53;69.49
15604;BME280;7902;49.042;9.092;2022-10-31T08:58:29;99464.16;;;15.59;68.87
15604;BME280;7902;49.042;9.092;2022-10-31T09:00:54;99463.50;;;15.66;69.46
15604;BME280;7902;49.042;9.092;2022-10-31T09:03:23;99457.50;;;15.64;69.09
15604;BME280;7902;49.042;9.092;2022-10-31T09:05:50;99460.69;;;15.68;69.43
15604;BME280;7902;49.042;9.092;2022-10-31T09:08:19;99455.28;;;15.69;69.78
15604;BME280;7902;49.042;9.092;2022-10-31T09:10:45;99458.38;;;15.74;69.56
15604;BME280;7902;49.042;9.092;2022-10-31T09:13:14;99458.91;;;15.68;69.90
15604;BME280;7902;49.042;9.092;2022-10-31T09:15:42;99458.66;;;15.71;69.89
15604;BME280;7902;49.042;9.092;2022-10-31T09:18:10;99456.69;;;15.73;69.48
15604;BME280;7902;49.042;9.092;2022-10-31T09:20:37;99455.03;;;15.72;70.08
15604;BME280;7902;49.042;9.092;2022-10-31T09:23:11;99447.50;;;15.77;70.17
15604;BME280;7902;49.042;9.092;2022-10-31T09:25:38;99455.72;;;15.74;69.39
15604;BME280;7902;49.042;9.092;2022-10-31T09:28:05;99452.22;;;15.74;70.28
15604;BME280;7902;49.042;9.092;2022-10-31T09:30:33;99450.31;;;15.86;69.46
15604;BME280;7902;49.042;9.092;2022-10-31T09:33:04;99445.69;;;15.78;70.20
15604;BME280;7902;49.042;9.092;2022-10-31T09:35:30;99449.91;;;15.90;69.54
15604;BME280;7902;49.042;9.092;2022-10-31T09:38:06;99448.66;;;15.94;69.42
15604;BME280;7902;49.042;9.092;2022-10-31T09:40:38;99443.25;;;15.96;69.90
15604;BME280;7902;49.042;9.092;2022-10-31T09:46:08;99442.25;;;16.06;69.55
15604;BME280;7902;49.042;9.092;2022-10-31T09:48:55;99444.66;;;16.09;69.46
15604;BME280;7902;49.042;9.092;2022-10-31T09:51:40;99439.50;;;16.17;69.35
15604;BME280;7902;49.042;9.092;2022-10-31T09:54:26;99443.84;;;16.28;69.28
15604;BME280;7902;49.042;9.092;2022-10-31T09:56:57;99443.53;;;16.31;69.58
15604;BME280;7902;49.042;9.092;2022-10-31T09:59:37;99440.19;;;16.39;69.38
15604;BME280;7902;49.042;9.092;2022-10-31T10:02:33;99435.88;;;16.38;69.23
15604;BME280;7902;49.042;9.092;2022-10-31T10:05:03;99443.13;;;16.45;69.75
15604;BME280;7902;49.042;9.092;2022-10-31T10:10:13;99443.56;;;16.60;69.43
15604;BME280;7902;49.042;9.092;2022-10-31T10:13:05;99437.72;;;16.66;69.35
15604;BME280;7902;49.042;9.092;2022-10-31T10:16:03;99443.13;;;16.74;69.35
15604;BME280;7902;49.042;9.092;2022-10-31T10:18:59;99433.50;;;16.73;70.11
15604;BME280;7902;49.042;9.092;2022-10-31T10:21:46;99435.16;;;16.84;70.11
15604;BME280;7902;49.042;9.092;2022-10-31T10:24:54;99433.34;;;16.84;69.68
15604;BME280;7902;49.042;9.092;2022-10-31T10:30:02;99428.47;;;16.89;68.93
15604;BME280;7902;49.042;9.092;2022-10-31T10:32:32;99423.25;;;16.97;70.40
15604;BME280;7902;49.042;9.092;2022-10-31T10:35:33;99421.31;;;16.99;70.15
15604;BME280;7902;49.042;9.092;2022-10-31T10:40:38;99409.69;;;17.00;69.13
15604;BME280;7902;49.042;9.092;2022-10-31T10:49:18;99391.50;;;17.15;68.01
15604;BME280;7902;49.042;9.092;2022-10-31T10:52:10;99397.34;;;17.19;67.38
15604;BME280;7902;49.042;9.092;2022-10-31T10:57:21;99395.41;;;17.21;68.96
15604;BME280;7902;49.042;9.092;2022-10-31T10:59:47;99390.88;;;17.31;69.12
15604;BME280;7902;49.042;9.092;2022-10-31T11:02:19;99394.91;;;17.35;69.00
15604;BME280;7902;49.042;9.092;2022-10-31T11:04:50;99385.88;;;17.28;69.30
15604;BME280;7902;49.042;9.092;2022-10-31T11:07:17;99376.19;;;17.36;68.10
15604;BME280;7902;49.042;9.092;2022-10-31T11:09:43;99372.63;;;17.28;67.58
15604;BME280;7902;49.042;9.092;2022-10-31T11:12:30;99363.91;;;17.35;67.40
15604;BME280;7902;49.042;9.092;2022-10-31T11:14:59;99363.75;;;17.37;66.44
15604;BME280;7902;49.042;9.092;2022-10-31T11:17:34;99361.13;;;17.37;66.29
15604;BME280;7902;49.042;9.092;2022-10-31T11:22:41;99350.06;;;17.41;66.55
15604;BME280;7902;49.042;9.092;2022-10-31T11:25:25;99346.25;;;17.44;66.43
15604;BME280;7902;49.042;9.092;2022-10-31T11:30:27;99341.53;;;17.38;67.58
15604;BME280;7902;49.042;9.092;2022-10-31T11:32:53;99338.16;;;17.45;65.95
15604;BME280;7902;49.042;9.092;2022-10-31T11:35:21;99334.66;;;17.45;66.64
15604;BME280;7902;49.042;9.092;2022-10-31T11:37:50;99330.31;;;17.44;67.28
15604;BME280;7902;49.042;9.092;2022-10-31T11:40:20;99324.69;;;17.47;66.53
15604;BME280;7902;49.042;9.092;2022-10-31T11:42:47;99323.59;;;17.49;65.98
15604;BME280;7902;49.042;9.092;2022-10-31T11:45:36;99321.91;;;17.48;66.55
15604;BME280;7902;49.042;9.092;2022-10-31T11:48:15;99310.06;;;17.43;65.71
15604;BME280;7902;49.042;9.092;2022-10-31T11:50:48;99300.53;;;17.50;65.57
15604;BME280;7902;49.042;9.092;2022-10-31T11:53:17;99308.63;;;17.48;65.92
15604;BME280;7902;49.042;9.092;2022-10-31T11:55:45;99307.50;;;17.51;66.57
15604;BME280;7902;49.042;9.092;2022-10-31T11:58:23;99312.38;;;17.55;65.62
15604;BME280;7902;49.042;9.092;2022-10-31T12:00:52;99297.28;;;17.56;65.51
15604;BME280;7902;49.042;9.092;2022-10-31T12:05:58;99287.31;;;17.58;65.80
15604;BME280;7902;49.042;9.092;2022-10-31T12:08:31;99295.28;;;17.58;65.27
15604;BME280;7902;49.042;9.092;2022-10-31T12:16:46;99287.75;;;17.63;65.35
15604;BME280;7902;49.042;9.092;2022-10-31T12:19:27;99278.19;;;17.70;65.42
15604;BME280;7902;49.042;9.092;2022-10-31T12:22:04;99275.00;;;17.67;66.67
15604;BME280;7902;49.042;9.092;2022-10-31T12:30:14;99278.66;;;17.83;66.96
15604;BME280;7902;49.042;9.092;2022-10-31T12:38:35;99248.22;;;17.78;64.88
15604;BME280;7902;49.042;9.092;2022-10-31T12:41:36;99242.81;;;17.87;65.63
15604;BME280;7902;49.042;9.092;2022-10-31T12:58:01;99235.69;;;17.88;64.98
15604;BME280;7902;49.042;9.092;2022-10-31T13:00:32;99223.91;;;17.90;65.13
15604;BME280;7902;49.042;9.092;2022-10-31T13:03:28;99220.41;;;17.90;66.52
15604;BME280;7902;49.042;9.092;2022-10-31T13:05:54;99224.41;;;17.94;65.19
15604;BME280;7902;49.042;9.092;2022-10-31T13:08:22;99217.97;;;17.96;65.13
15604;BME280;7902;49.042;9.092;2022-10-31T13:11:08;99205.00;;;17.93;65.08
15604;BME280;7902;49.042;9.092;2022-10-31T13:13:40;99203.34;;;17.92;65.63
15604;BME280;7902;49.042;9.092;2022-10-31T13:16:16;99200.50;;;17.94;65.07
15604;BME280;7902;49.042;9.092;2022-10-31T13:18:54;99194.66;;;17.90;64.89
15604;BME280;7902;49.042;9.092;2022-10-31T13:21:23;99185.56;;;17.93;64.45
15604;BME280;7902;49.042;9.092;2022-10-31T13:23:50;99179.56;;;17.91;64.95
15604;BME280;7902;49.042;9.092;2022-10-31T13:26:40;99176.44;;;17.95;64.89
15604;BME280;7902;49.042;9.092;2022-10-31T13:29:19;99166.97;;;17.93;65.43
15604;BME280;7902;49.042;9.092;2022-10-31T13:31:46;99169.78;;;17.91;65.34
15604;BME280;7902;49.042;9.092;2022-10-31T13:34:27;99168.78;;;17.92;65.48
15604;BME280;7902;49.042;9.092;2022-10-31T13:37:01;99160.50;;;17.95;64.64
15604;BME280;7902;49.042;9.092;2022-10-31T13:42:19;99149.13;;;18.03;64.93
15604;BME280;7902;49.042;9.092;2022-10-31T13:44:47;99146.56;;;17.93;64.64
15604;BME280;7902;49.042;9.092;2022-10-31T13:47:28;99160.88;;;18.01;65.03
15604;BME280;7902;49.042;9.092;2022-10-31T13:50:20;99155.56;;;18.01;65.42
15604;BME280;7902;49.042;9.092;2022-10-31T13:52:46;99164.38;;;18.01;66.78
15604;BME280;7902;49.042;9.092;2022-10-31T13:55:42;99166.69;;;18.04;64.79
15604;BME280;7902;49.042;9.092;2022-10-31T13:58:37;99162.06;;;18.06;66.30
15604;BME280;7902;49.042;9.092;2022-10-31T14:03:37;99153.31;;;18.14;65.20
15604;BME280;7902;49.042;9.092;2022-10-31T14:06:04;99161.94;;;18.08;65.19
15604;BME280;7902;49.042;9.092;2022-10-31T14:08:34;99163.06;;;18.05;64.74
15604;BME280;7902;49.042;9.092;2022-10-31T14:11:01;99155.78;;;18.07;65.17
15604;BME280;7902;49.042;9.092;2022-10-31T14:13:33;99155.09;;;18.05;64.80
15604;BME280;7902;49.042;9.092;2022-10-31T14:16:05;99156.44;;;18.09;64.59
15604;BME280;7902;49.042;9.092;2022-10-31T14:18:35;99149.16;;;18.11;65.16
15604;BME280;7902;49.042;9.092;2022-10-31T14:23:41;99141.69;;;18.15;65.11
15604;BME280;7902;49.042;9.092;2022-10-31T14:26:29;99134.22;;;18.18;64.75
15604;BME280;7902;49.042;9.092;2022-10-31T14:28:58;99128.53;;;18.13;65.00
15604;BME280;7902;49.042;9.092;2022-10-31T14:31:29;99117.09;;;18.13;65.01
15604;BME280;7902;49.042;9.092;2022-10-31T14:42:20;99133.38;;;18.18;64.29
15604;BME280;7902;49.042;9.092;2022-10-31T14:47:51;99126.94;;;18.20;64.72
15604;BME280;7902;49.042;9.092;2022-10-31T14:50:32;99117.13;;;18.21;64.63
15604;BME280;7902;49.042;9.092;2022-10-31T14:53:04;99123.59;;;18.18;64.53
15604;BME280;7902;49.042;9.092;2022-10-31T14:55:31;99123.59;;;18.18;64.63
15604;BME280;7902;49.042;9.092;2022-10-31T14:58:04;99110.16;;;18.20;64.61
15604;BME280;7902;49.042;9.092;2022-10-31T15:00:33;99113.50;;;18.22;64.86
15604;BME280;7902;49.042;9.092;2022-10-31T15:03:17;99119.13;;;18.19;64.92
15604;BME280;7902;49.042;9.092;2022-10-31T15:05:51;99110.84;;;18.22;66.60
15604;BME280;7902;49.042;9.092;2022-10-31T15:08:54;99119.81;;;18.29;70.29
15604;BME280;7902;49.042;9.092;2022-10-31T15:11:24;99117.69;;;18.32;68.88